Time;durP1;ratioP1;P1;durP2;ratioP2;P2;SDS_P1;SDS_P2;PMS_P1;PMS_P2;Temp;Humidity;BMP_temperature;BMP_pressure;BME280_temperature;BME280_humidity;BME280_pressure;Samples;Min_cycle;Max_cycle;Signal;HPM_P1;HPM_P2
2022/06/16 00:00:30;;;;;;;;;;;;;;;-140.72;100.00;52269.13;6297683;22;19941;-68
2022/06/16 00:02:55;;;;;;;;;;;;;;;-140.72;100.00;52283.31;6297732;22;19915;-69
2022/06/16 00:05:22;;;;;;;;;;;;;;;-140.72;100.00;52265.06;6297572;22;19911;-69
2022/06/16 00:07:48;;;;;;;;;;;;;;;-140.72;100.00;52285.34;6297404;22;19911;-69
2022/06/16 00:10:14;;;;;;;;;;;;;;;-140.72;100.00;52267.09;6269364;22;19955;-68
2022/06/16 00:12:39;;;;;;;;;;;;;;;-140.72;100.00;52289.41;6296724;22;20253;-68
2022/06/16 00:15:06;;;;;;;;;;;;;;;-140.72;100.00;52275.19;6269981;22;19915;-69
2022/06/16 00:17:31;;;;;;;;;;;;;;;-140.72;100.00;52309.69;6297166;22;19963;-69
2022/06/16 00:19:56;;;;;;;;;;;;;;;-140.72;100.00;52291.44;6296913;22;19911;-69
2022/06/16 00:22:21;;;;;;;;;;;;;;;-140.72;100.00;52265.06;6269900;22;19926;-68
2022/06/16 00:24:47;;;;;;;;;;;;;;;-140.72;100.00;52273.19;6269855;22;19916;-69
2022/06/16 00:27:12;;;;;;;;;;;;;;;-140.72;100.00;52277.22;6270221;22;19911;-69
2022/06/16 00:29:37;;;;;;;;;;;;;;;-140.72;100.00;52299.56;6269755;22;19933;-69
2022/06/16 00:32:03;;;;;;;;;;;;;;;-140.72;100.00;52289.41;6296978;22;19973;-69
2022/06/16 00:34:28;;;;;;;;;;;;;;;-140.72;100.00;52240.72;6295775;22;19915;-69
2022/06/16 00:36:54;;;;;;;;;;;;;;;-140.72;100.00;52271.16;6296699;22;19926;-68
2022/06/16 00:39:19;;;;;;;;;;;;;;;-140.72;100.00;52311.72;6269348;22;19922;-68
2022/06/16 00:41:44;;;;;;;;;;;;;;;-140.72;100.00;52246.78;6295600;22;19988;-69
2022/06/16 00:44:13;;;;;;;;;;;;;;;-140.72;100.00;52297.53;6296408;22;19955;-69
2022/06/16 00:46:38;;;;;;;;;;;;;;;-140.72;100.00;52289.41;6296676;22;19911;-69
2022/06/16 00:49:06;;;;;;;;;;;;;;;-140.72;100.00;52244.78;6267848;22;19915;-69
2022/06/16 00:51:37;;;;;;;;;;;;;;;-140.72;100.00;52263.03;6294935;22;19911;-69
2022/06/16 00:54:05;;;;;;;;;;;;;;;-140.72;100.00;52252.88;6296526;22;19926;-70
2022/06/16 00:56:31;;;;;;;;;;;;;;;-140.72;100.00;52325.94;6295371;22;19934;-69
2022/06/16 00:58:58;;;;;;;;;;;;;;;-140.72;100.00;52311.72;6296248;22;19919;-69
2022/06/16 01:01:24;;;;;;;;;;;;;;;-140.72;100.00;52303.59;6296986;22;19918;-69
2022/06/16 01:06:34;;;;;;;;;;;;;;;-140.72;100.00;52297.53;6297548;22;19988;-69
2022/06/16 01:09:03;;;;;;;;;;;;;;;-140.72;100.00;52299.56;6296955;22;19955;-68
2022/06/16 01:14:58;;;;;;;;;;;;;;;-140.72;100.00;52295.50;6297378;22;19971;-69
2022/06/16 01:17:28;;;;;;;;;;;;;;;-140.72;100.00;52285.34;6249373;22;19926;-69
2022/06/16 01:20:09;;;;;;;;;;;;;;;-140.72;100.00;52285.34;6295682;22;19998;-69
2022/06/16 01:22:49;;;;;;;;;;;;;;;-140.72;100.00;52293.47;6295732;22;19957;-69
2022/06/16 01:25:33;;;;;;;;;;;;;;;-140.72;100.00;52321.88;6296385;22;19910;-69
2022/06/16 01:27:58;;;;;;;;;;;;;;;-140.72;100.00;52303.59;6271263;22;19922;-68
2022/06/16 01:30:44;;;;;;;;;;;;;;;-140.72;100.00;52269.13;6295637;22;19931;-68
2022/06/16 01:33:20;;;;;;;;;;;;;;;-140.72;100.00;52277.22;6268659;22;20017;-68
2022/06/16 01:35:59;;;;;;;;;;;;;;;-140.72;100.00;52301.59;6296848;22;19937;-67
2022/06/16 01:38:35;;;;;;;;;;;;;;;-140.72;100.00;52303.59;6295949;22;19915;-68
2022/06/16 01:41:13;;;;;;;;;;;;;;;-140.72;100.00;52323.91;6296480;22;20289;-68
2022/06/16 01:43:42;;;;;;;;;;;;;;;-140.72;100.00;52338.09;6295907;22;19955;-70
2022/06/16 01:46:13;;;;;;;;;;;;;;;-140.72;100.00;52352.31;6296282;22;19938;-68
2022/06/16 01:48:41;;;;;;;;;;;;;;;-140.72;100.00;52297.53;6295737;22;19911;-68
2022/06/16 01:51:10;;;;;;;;;;;;;;;-140.72;100.00;52309.69;6294265;22;19911;-67
2022/06/16 01:53:41;;;;;;;;;;;;;;;-140.72;100.00;52354.34;6293838;22;19953;-68
2022/06/16 01:56:13;;;;;;;;;;;;;;;-140.72;100.00;52325.94;6293966;22;19933;-68
2022/06/16 01:58:41;;;;;;;;;;;;;;;-140.72;100.00;52277.22;6295387;22;19961;-67
2022/06/16 02:01:07;;;;;;;;;;;;;;;-140.72;100.00;52330.00;6292722;22;19998;-68
2022/06/16 02:03:42;;;;;;;;;;;;;;;-140.72;100.00;52338.09;6295309;22;19935;-67
2022/06/16 02:06:30;;;;;;;;;;;;;;;-140.72;100.00;52321.88;6295334;22;19963;-68
2022/06/16 02:08:59;;;;;;;;;;;;;;;-140.72;100.00;52327.97;6267521;22;19911;-68
2022/06/16 02:11:27;;;;;;;;;;;;;;;-140.72;100.00;52368.53;6295607;22;19920;-69
2022/06/16 02:13:56;;;;;;;;;;;;;;;-140.72;100.00;52313.75;6268259;22;20057;-68
2022/06/16 02:16:23;;;;;;;;;;;;;;;-140.72;100.00;52297.53;6294749;22;19911;-68
2022/06/16 02:18:51;;;;;;;;;;;;;;;-140.72;100.00;52342.16;6268526;22;19911;-68
2022/06/16 02:21:37;;;;;;;;;;;;;;;-140.72;100.00;52368.53;6296297;22;19911;-67
2022/06/16 02:24:03;;;;;;;;;;;;;;;-140.72;100.00;52315.78;6295562;22;19912;-68
2022/06/16 02:26:29;;;;;;;;;;;;;;;-140.72;100.00;52344.19;6267977;22;19911;-68
2022/06/16 02:28:58;;;;;;;;;;;;;;;-140.72;100.00;52354.34;6295495;22;19950;-68
2022/06/16 02:31:32;;;;;;;;;;;;;;;-140.72;100.00;52325.94;6295437;22;19926;-67
2022/06/16 04:23:47;;;;;;;;;;;;;;;-140.72;100.00;52301.59;6280923;22;20348;-73
2022/06/16 04:26:13;;;;;;;;;;;;;;;-140.72;100.00;52285.34;6269784;22;19920;-71
2022/06/16 04:28:38;;;;;;;;;;;;;;;-140.72;100.00;52307.66;6271592;22;19922;-71
2022/06/16 04:31:03;;;;;;;;;;;;;;;-140.72;100.00;52303.59;6294664;22;19986;-71
2022/06/16 04:33:28;;;;;;;;;;;;;;;-140.72;100.00;52317.81;6259375;22;19911;-72
2022/06/16 04:35:54;;;;;;;;;;;;;;;-140.72;100.00;52285.34;6278760;22;19968;-69
2022/06/16 04:38:19;;;;;;;;;;;;;;;-140.72;100.00;52301.59;6249820;22;20001;-72
2022/06/16 04:40:45;;;;;;;;;;;;;;;-140.72;100.00;52309.69;6278069;22;20248;-70
2022/06/16 04:43:14;;;;;;;;;;;;;;;-140.72;100.00;52295.50;6278146;22;19911;-71
2022/06/16 04:45:39;;;;;;;;;;;;;;;-140.72;100.00;52364.47;6254010;22;19911;-71
2022/06/16 04:48:05;;;;;;;;;;;;;;;-140.72;100.00;52309.69;6281765;22;19911;-71
2022/06/16 04:50:30;;;;;;;;;;;;;;;-140.72;100.00;52283.31;6280911;22;20017;-72
2022/06/16 04:52:55;;;;;;;;;;;;;;;-140.72;100.00;52267.09;6281632;22;20309;-71
2022/06/16 04:55:21;;;;;;;;;;;;;;;-140.72;100.00;52295.50;6283073;22;19934;-71
2022/06/16 04:57:46;;;;;;;;;;;;;;;-140.72;100.00;52301.59;6286786;22;19918;-70
2022/06/16 05:00:14;;;;;;;;;;;;;;;-140.72;100.00;52295.50;6297437;22;19911;-70
2022/06/16 05:02:39;;;;;;;;;;;;;;;-140.72;100.00;52301.59;6296565;22;19927;-70
2022/06/16 05:05:05;;;;;;;;;;;;;;;-140.72;100.00;52297.53;6297714;22;19911;-70
2022/06/16 05:07:30;;;;;;;;;;;;;;;-140.72;100.00;52263.03;6298205;22;19968;-70
2022/06/16 05:09:55;;;;;;;;;;;;;;;-140.72;100.00;52258.97;6295360;22;19926;-70
2022/06/16 05:12:21;;;;;;;;;;;;;;;-140.72;100.00;52252.88;6299150;22;19923;-69
2022/06/16 05:14:46;;;;;;;;;;;;;;;-140.72;100.00;52256.94;6297838;22;19923;-70
2022/06/16 05:17:12;;;;;;;;;;;;;;;-140.72;100.00;52232.59;6270440;22;20018;-71
2022/06/16 05:19:37;;;;;;;;;;;;;;;-140.72;100.00;52269.13;6296782;22;19912;-70
2022/06/16 05:22:05;;;;;;;;;;;;;;;-140.72;100.00;52250.84;6296943;22;19955;-70
2022/06/16 05:24:30;;;;;;;;;;;;;;;-140.72;100.00;52198.09;6267246;22;19919;-71
2022/06/16 05:26:55;;;;;;;;;;;;;;;-140.72;100.00;52281.28;6294854;22;19911;-71
2022/06/16 05:29:21;;;;;;;;;;;;;;;-140.72;100.00;52230.56;6297171;22;19915;-71
2022/06/16 05:31:46;;;;;;;;;;;;;;;-140.72;100.00;52236.66;6291559;22;19911;-71
2022/06/16 05:34:11;;;;;;;;;;;;;;;-140.72;100.00;52265.06;6253305;22;19942;-70
2022/06/16 05:36:37;;;;;;;;;;;;;;;-140.72;100.00;52258.97;6279017;22;19998;-70
2022/06/16 05:39:02;;;;;;;;;;;;;;;-140.72;100.00;52236.66;6282508;22;19927;-70
2022/06/16 05:41:27;;;;;;;;;;;;;;;-140.72;100.00;52277.22;6279988;22;19911;-71
2022/06/16 05:43:52;;;;;;;;;;;;;;;-140.72;100.00;52236.66;6255307;22;19915;-73
2022/06/16 05:46:19;;;;;;;;;;;;;;;-140.72;100.00;52248.81;6278021;22;19918;-72
2022/06/16 05:48:45;;;;;;;;;;;;;;;-140.72;100.00;52236.66;6278918;22;19911;-72
2022/06/16 05:51:12;;;;;;;;;;;;;;;-140.72;100.00;52244.78;6279318;22;20327;-72
2022/06/16 05:53:38;;;;;;;;;;;;;;;-140.72;100.00;52224.47;6279028;22;20320;-75
2022/06/16 05:56:03;;;;;;;;;;;;;;;-140.72;100.00;52220.41;6251818;22;19911;-72
2022/06/16 05:58:28;;;;;;;;;;;;;;;-140.72;100.00;52216.34;6279288;22;20506;-71
2022/06/16 06:00:54;;;;;;;;;;;;;;;-140.72;100.00;52232.59;6276402;22;19993;-72
2022/06/16 06:03:19;;;;;;;;;;;;;;;-140.72;100.00;52228.53;6279943;22;19911;-73
2022/06/16 06:05:44;;;;;;;;;;;;;;;-140.72;100.00;52220.41;6278916;22;19957;-71
2022/06/16 06:16:26;;;;;;;;;;;;;;;-140.72;100.00;52206.22;6291898;22;19937;-74
2022/06/16 06:18:52;;;;;;;;;;;;;;;-140.72;100.00;52218.38;6286928;22;20206;-77
2022/06/16 06:21:57;;;;;;;;;;;;;;;-140.72;100.00;52232.59;6294050;22;19910;-72
2022/06/16 06:24:02;;;;;;;;;;;;;;;-140.72;100.00;52194.03;6300262;22;19945;-74
2022/06/16 06:26:27;;;;;;;;;;;;;;;-140.72;100.00;52202.16;6274140;22;19903;-73
2022/06/16 06:28:53;;;;;;;;;;;;;;;-140.72;100.00;52220.41;6302404;22;19923;-73
2022/06/16 06:31:18;;;;;;;;;;;;;;;-140.72;100.00;52212.31;6303710;22;19915;-73
2022/06/16 06:33:43;;;;;;;;;;;;;;;-140.72;100.00;52236.66;6303534;22;19937;-72
2022/06/16 06:36:08;;;;;;;;;;;;;;;-140.72;100.00;52200.13;6276902;22;19899;-72
2022/06/16 06:38:34;;;;;;;;;;;;;;;-140.72;100.00;52208.25;6302724;22;19965;-72
2022/06/16 06:40:59;;;;;;;;;;;;;;;-140.72;100.00;52206.22;6275851;22;19918;-72
2022/06/16 06:43:25;;;;;;;;;;;;;;;-140.72;100.00;52155.50;6302883;22;19923;-72
2022/06/16 06:45:50;;;;;;;;;;;;;;;-140.72;100.00;52175.78;6303417;22;19903;-72
2022/06/16 06:48:16;;;;;;;;;;;;;;;-140.72;100.00;52194.03;6303630;22;19899;-72
2022/06/16 06:50:41;;;;;;;;;;;;;;;-140.72;100.00;52165.63;6303485;22;20019;-72
2022/06/16 06:53:07;;;;;;;;;;;;;;;-140.72;100.00;52189.97;6303086;22;19919;-71
2022/06/16 06:55:34;;;;;;;;;;;;;;;-140.72;100.00;52179.84;6300529;22;19904;-74
2022/06/16 06:58:00;;;;;;;;;;;;;;;-140.72;100.00;52196.06;6265708;22;19915;-73
2022/06/16 07:00:26;;;;;;;;;;;;;;;-140.72;100.00;52228.53;6285601;22;19986;-72
2022/06/16 07:02:58;;;;;;;;;;;;;;;-140.72;100.00;52145.34;6284985;22;19922;-72
2022/06/16 07:05:23;;;;;;;;;;;;;;;-140.72;100.00;52163.59;6283278;22;19911;-72
2022/06/16 07:07:48;;;;;;;;;;;;;;;-140.72;100.00;52153.47;6283030;22;19993;-72
2022/06/16 07:10:15;;;;;;;;;;;;;;;-140.72;100.00;52147.38;6283031;22;19943;-74
2022/06/16 07:12:40;;;;;;;;;;;;;;;-140.72;100.00;52185.94;6285550;22;19979;-72
2022/06/16 07:15:06;;;;;;;;;;;;;;;-140.72;100.00;52114.91;6283196;22;19967;-72
2022/06/16 07:17:31;;;;;;;;;;;;;;;-140.72;100.00;52159.56;6286025;22;19922;-72
2022/06/16 07:19:56;;;;;;;;;;;;;;;-140.72;100.00;52094.63;6283813;22;20337;-71
2022/06/16 07:22:22;;;;;;;;;;;;;;;-140.72;100.00;52163.59;6282933;22;19939;-71
2022/06/16 07:24:48;;;;;;;;;;;;;;;-140.72;100.00;52192.00;6282730;22;19912;-71
2022/06/16 07:27:14;;;;;;;;;;;;;;;-140.72;100.00;52161.56;6256063;22;20480;-74
2022/06/16 07:29:39;;;;;;;;;;;;;;;-140.72;100.00;52127.09;6283520;22;19917;-72
2022/06/16 07:32:04;;;;;;;;;;;;;;;-140.72;100.00;52118.97;6255604;22;19937;-72
2022/06/16 07:34:30;;;;;;;;;;;;;;;-140.72;100.00;52118.97;6283203;22;19919;-71
2022/06/16 07:36:55;;;;;;;;;;;;;;;-140.72;100.00;52157.53;6283024;22;19918;-72
2022/06/16 07:39:21;;;;;;;;;;;;;;;-140.72;100.00;52114.91;6283368;22;19911;-72
2022/06/16 07:41:46;;;;;;;;;;;;;;;-140.72;100.00;52129.13;6283059;22;19930;-72
2022/06/16 07:44:13;;;;;;;;;;;;;;;-140.72;100.00;52114.91;6284406;22;19911;-72
2022/06/16 07:46:39;;;;;;;;;;;;;;;-140.72;100.00;52125.06;6285003;22;19923;-72
2022/06/16 07:49:05;;;;;;;;;;;;;;;-140.72;100.00;52114.91;6284496;22;19926;-72
2022/06/16 07:51:30;;;;;;;;;;;;;;;-140.72;100.00;52114.91;6284584;22;19912;-72
2022/06/16 07:53:55;;;;;;;;;;;;;;;-140.72;100.00;52143.31;6283517;22;19919;-72
2022/06/16 07:56:21;;;;;;;;;;;;;;;-140.72;100.00;52121.00;6283638;22;20228;-72
2022/06/16 07:58:46;;;;;;;;;;;;;;;-140.72;100.00;52116.94;6284189;22;19972;-74
2022/06/16 08:01:11;;;;;;;;;;;;;;;-140.72;100.00;52116.94;6283614;22;19938;-72
2022/06/16 08:03:37;;;;;;;;;;;;;;;-140.72;100.00;52110.84;6284645;22;19975;-72
2022/06/16 08:06:06;;;;;;;;;;;;;;;-140.72;100.00;52094.63;6283470;22;20360;-73
2022/06/16 08:08:31;;;;;;;;;;;;;;;-140.72;100.00;52074.34;6278437;22;19926;-72
2022/06/16 08:10:56;;;;;;;;;;;;;;;-140.72;100.00;52082.44;6284272;22;19912;-73
2022/06/16 08:13:23;;;;;;;;;;;;;;;-140.72;100.00;52080.41;6284788;22;19951;-73
2022/06/16 08:15:49;;;;;;;;;;;;;;;-140.72;100.00;52074.34;6284767;22;19919;-73
2022/06/16 08:18:16;;;;;;;;;;;;;;;-140.72;100.00;52021.56;6284399;22;19925;-73
2022/06/16 08:20:42;;;;;;;;;;;;;;;-140.72;100.00;52066.22;6284466;22;19926;-73
2022/06/16 08:23:07;;;;;;;;;;;;;;;-140.72;100.00;52033.75;6285192;22;19919;-73
2022/06/16 08:25:33;;;;;;;;;;;;;;;-140.72;100.00;52015.50;6257046;22;19969;-73
2022/06/16 08:28:01;;;;;;;;;;;;;;;-140.72;100.00;52035.78;6257530;22;20232;-73
2022/06/16 08:30:26;;;;;;;;;;;;;;;-140.72;100.00;52047.97;6285561;22;20224;-73
2022/06/16 08:32:52;;;;;;;;;;;;;;;-140.72;100.00;51989.13;6269308;22;19922;-73
2022/06/16 08:35:17;;;;;;;;;;;;;;;-140.72;100.00;52021.56;6292207;22;20017;-73
2022/06/16 08:37:42;;;;;;;;;;;;;;;-140.72;100.00;52001.28;6289315;22;19962;-72
2022/06/16 08:40:09;;;;;;;;;;;;;;;-140.72;100.00;52025.63;6284750;22;19922;-73
2022/06/16 08:42:39;;;;;;;;;;;;;;;-140.72;100.00;51964.78;6284275;22;20021;-73
2022/06/16 08:45:30;;;;;;;;;;;;;;;-140.72;100.00;51972.88;6285138;22;19965;-73
2022/06/16 08:48:03;;;;;;;;;;;;;;;-140.72;100.00;52027.66;6278943;22;19915;-73
2022/06/16 08:50:33;;;;;;;;;;;;;;;-140.72;100.00;52025.63;6282809;22;19966;-72
2022/06/16 08:53:12;;;;;;;;;;;;;;;-140.72;100.00;52005.34;6255748;22;19957;-72
2022/06/16 08:55:41;;;;;;;;;;;;;;;-140.72;100.00;51940.41;6284016;22;19945;-72
2022/06/16 08:58:10;;;;;;;;;;;;;;;-140.72;100.00;51926.22;6283399;22;19922;-72
2022/06/16 09:00:38;;;;;;;;;;;;;;;-140.72;100.00;51936.38;6283464;22;19922;-72
2022/06/16 09:03:35;;;;;;;;;;;;;;;-140.72;100.00;51883.63;6283692;22;19911;-72
2022/06/16 09:06:08;;;;;;;;;;;;;;;-140.72;100.00;51887.66;6232593;22;20236;-73
2022/06/16 09:08:52;;;;;;;;;;;;;;;-140.72;100.00;51944.47;6284314;22;19958;-72
2022/06/16 09:11:32;;;;;;;;;;;;;;;-140.72;100.00;51891.72;6284475;22;19968;-72
2022/06/16 09:14:17;;;;;;;;;;;;;;;-140.72;100.00;51889.69;6284886;22;20286;-73
2022/06/16 09:16:43;;;;;;;;;;;;;;;-140.72;100.00;51879.56;6278343;22;19938;-71
2022/06/16 09:19:08;;;;;;;;;;;;;;;-140.72;100.00;51907.97;6300184;22;19903;-71
2022/06/16 09:22:09;;;;;;;;;;;;;;;-140.72;100.00;51887.66;6299399;22;19911;-71
2022/06/16 09:24:46;;;;;;;;;;;;;;;-140.72;100.00;51879.56;6206238;23;19920;-71
2022/06/16 09:27:17;;;;;;;;;;;;;;;-140.72;100.00;51847.09;6288573;22;19911;-71
2022/06/16 09:29:56;;;;;;;;;;;;;;;-140.72;100.00;51841.00;6300650;22;19915;-70
2022/06/16 09:32:27;;;;;;;;;;;;;;;-140.72;100.00;51838.97;6273290;22;19946;-71
2022/06/16 09:35:12;;;;;;;;;;;;;;;-140.72;100.00;51820.72;6299672;22;19921;-71
2022/06/16 09:37:52;;;;;;;;;;;;;;;-140.72;100.00;51782.16;6300405;22;19911;-72
2022/06/16 09:40:28;;;;;;;;;;;;;;;-140.72;100.00;51790.28;6299922;22;19930;-73
2022/06/16 09:43:05;;;;;;;;;;;;;;;-140.72;100.00;51770.00;6299219;22;19911;-72
2022/06/16 09:45:36;;;;;;;;;;;;;;;-140.72;100.00;51767.97;6300955;22;19925;-71
2022/06/16 09:48:10;;;;;;;;;;;;;;;-140.72;100.00;51699.00;6300241;22;19917;-72
2022/06/16 09:50:54;;;;;;;;;;;;;;;-140.72;100.00;51705.06;6271984;22;19930;-71
2022/06/16 09:53:34;;;;;;;;;;;;;;;-140.72;100.00;51735.50;6299793;22;19939;-71
2022/06/16 09:56:03;;;;;;;;;;;;;;;-140.72;100.00;51705.06;6300744;22;19915;-72
2022/06/16 09:58:31;;;;;;;;;;;;;;;-140.72;100.00;51721.31;6301080;22;19922;-72
2022/06/16 10:00:59;;;;;;;;;;;;;;;-140.72;100.00;51648.28;6275329;22;19911;-73
2022/06/16 10:03:27;;;;;;;;;;;;;;;-140.72;100.00;51664.50;6303106;22;19915;-72
2022/06/16 10:06:07;;;;;;;;;;;;;;;-140.72;100.00;51640.16;6303216;22;19903;-72
2022/06/16 10:08:55;;;;;;;;;;;;;;;-140.72;100.00;51630.00;6302334;22;19899;-71
2022/06/16 10:11:38;;;;;;;;;;;;;;;-140.72;100.00;51664.50;6289921;22;19922;-73
2022/06/16 10:14:14;;;;;;;;;;;;;;;-140.72;100.00;51640.16;6303430;22;19907;-71
2022/06/16 10:16:48;;;;;;;;;;;;;;;-140.72;100.00;51623.94;6302837;22;19980;-70
2022/06/16 10:19:14;;;;;;;;;;;;;;;-140.72;100.00;51623.94;6302008;22;19959;-71
2022/06/16 10:21:39;;;;;;;;;;;;;;;-140.72;100.00;51575.25;6302364;22;19899;-70
2022/06/16 10:24:05;;;;;;;;;;;;;;;-140.72;100.00;51591.47;6303544;22;19964;-71
2022/06/16 10:26:30;;;;;;;;;;;;;;;-140.72;100.00;51656.38;6301187;22;19923;-71
2022/06/16 10:29:18;;;;;;;;;;;;;;;-140.72;100.00;51607.69;6302154;22;19911;-71
2022/06/16 10:31:45;;;;;;;;;;;;;;;-140.72;100.00;51615.81;6302425;22;19903;-71
2022/06/16 10:34:19;;;;;;;;;;;;;;;-140.72;100.00;51552.94;6304032;22;19945;-73
2022/06/16 10:36:53;;;;;;;;;;;;;;;-140.72;100.00;51536.69;6304640;22;19939;-71
2022/06/16 10:39:21;;;;;;;;;;;;;;;-140.72;100.00;51490.03;6302899;22;19927;-71
2022/06/16 10:41:46;;;;;;;;;;;;;;;-140.72;100.00;51508.28;6276116;22;19907;-72
2022/06/16 10:44:13;;;;;;;;;;;;;;;-140.72;100.00;51498.16;6302757;22;19899;-71
2022/06/16 10:46:48;;;;;;;;;;;;;;;-140.72;100.00;51475.84;6303467;22;19915;-71
2022/06/16 10:49:20;;;;;;;;;;;;;;;-140.72;100.00;51496.13;6302631;22;19991;-71
2022/06/16 10:51:52;;;;;;;;;;;;;;;-140.72;100.00;51477.88;6304103;22;19903;-71
2022/06/16 10:54:31;;;;;;;;;;;;;;;-140.72;100.00;51544.81;6303821;22;19975;-72
2022/06/16 10:57:17;;;;;;;;;;;;;;;-140.72;100.00;51492.06;6303174;22;19905;-71
2022/06/16 10:59:50;;;;;;;;;;;;;;;-140.72;100.00;51477.88;6302518;22;19919;-71
2022/06/16 11:02:22;;;;;;;;;;;;;;;-140.72;100.00;51477.88;6302512;22;19952;-70
2022/06/16 11:04:56;;;;;;;;;;;;;;;-140.72;100.00;51514.38;6274331;22;19969;-71
2022/06/16 11:07:22;;;;;;;;;;;;;;;-140.72;100.00;51561.03;6302303;22;19911;-71
2022/06/16 11:09:47;;;;;;;;;;;;;;;-140.72;100.00;51540.75;6301966;22;19943;-71
2022/06/16 11:12:21;;;;;;;;;;;;;;;-140.72;100.00;51502.22;6300820;22;19912;-71
2022/06/16 11:14:54;;;;;;;;;;;;;;;-140.72;100.00;51483.94;6301633;22;19998;-71
2022/06/16 11:17:28;;;;;;;;;;;;;;;-140.72;100.00;51494.09;6301503;22;19933;-71
2022/06/16 11:19:59;;;;;;;;;;;;;;;-140.72;100.00;51492.06;6274944;22;19911;-71
2022/06/16 11:22:24;;;;;;;;;;;;;;;-140.72;100.00;51504.25;6300983;22;19919;-72
2022/06/16 11:25:13;;;;;;;;;;;;;;;-140.72;100.00;51441.34;6301609;22;19899;-71
2022/06/16 11:28:01;;;;;;;;;;;;;;;-140.72;100.00;51429.19;6289361;22;19922;-72
2022/06/16 11:30:26;;;;;;;;;;;;;;;-140.72;100.00;51449.47;6288669;22;19921;-73
2022/06/16 11:32:52;;;;;;;;;;;;;;;-140.72;100.00;51421.06;6301919;22;19911;-72
2022/06/16 11:35:17;;;;;;;;;;;;;;;-140.72;100.00;51512.34;6301463;22;19926;-72
2022/06/16 11:37:45;;;;;;;;;;;;;;;-140.72;100.00;51494.09;6301442;22;19987;-71
2022/06/16 11:40:19;;;;;;;;;;;;;;;-140.72;100.00;51453.53;6301726;22;19923;-73
2022/06/16 11:43:02;;;;;;;;;;;;;;;-140.72;100.00;51496.13;6302181;22;19919;-71
2022/06/16 11:45:33;;;;;;;;;;;;;;;-140.72;100.00;51475.84;6301431;22;19977;-71
2022/06/16 11:48:05;;;;;;;;;;;;;;;-140.72;100.00;51479.91;6301792;22;19921;-72
2022/06/16 11:50:49;;;;;;;;;;;;;;;-140.72;100.00;51528.59;6301363;22;19915;-72
2022/06/16 11:53:33;;;;;;;;;;;;;;;-140.72;100.00;51477.88;6301133;22;19911;-70
2022/06/16 11:56:06;;;;;;;;;;;;;;;-140.72;100.00;51485.97;6299997;22;19923;-74
2022/06/16 11:58:51;;;;;;;;;;;;;;;-140.72;100.00;51512.34;6286145;22;20219;-74
2022/06/16 12:01:24;;;;;;;;;;;;;;;-140.72;100.00;51522.50;6274924;22;20341;-74
2022/06/16 12:03:49;;;;;;;;;;;;;;;-140.72;100.00;51597.56;6260356;22;19967;-74
2022/06/16 12:06:14;;;;;;;;;;;;;;;-140.72;100.00;51554.94;6259704;22;19915;-74
2022/06/16 12:08:43;;;;;;;;;;;;;;;-140.72;100.00;51500.19;6291921;22;19935;-76
2022/06/16 12:11:18;;;;;;;;;;;;;;;-140.72;100.00;51419.03;6298863;22;19903;-75
2022/06/16 12:13:55;;;;;;;;;;;;;;;-140.72;100.00;51412.94;6297876;22;19911;-75
2022/06/16 12:16:31;;;;;;;;;;;;;;;-140.72;100.00;51410.91;6298959;22;19923;-74
2022/06/16 12:19:05;;;;;;;;;;;;;;;-140.72;98.42;51449.47;6296991;22;19912;-76
2022/06/16 12:22:03;;;;;;;;;;;;;;;-140.72;100.00;51398.75;6296688;22;19911;-75
2022/06/16 12:24:42;;;;;;;;;;;;;;;-140.72;100.00;51412.94;6245409;22;19903;-75
2022/06/16 12:27:10;;;;;;;;;;;;;;;-140.72;100.00;51425.13;6297510;22;19947;-75
2022/06/16 12:29:47;;;;;;;;;;;;;;;-140.72;100.00;51388.59;6298057;22;19925;-75
2022/06/16 12:32:31;;;;;;;;;;;;;;;-140.72;100.00;51354.13;6297568;22;20378;-75
2022/06/16 12:35:15;;;;;;;;;;;;;;;-140.72;100.00;51358.19;6298164;22;19904;-75
2022/06/16 12:37:44;;;;;;;;;;;;;;;-140.72;97.36;51372.38;6299890;22;19903;-75
2022/06/16 12:40:09;;;;;;;;;;;;;;;-140.72;100.00;51372.38;6299491;22;19903;-75
2022/06/16 12:42:40;;;;;;;;;;;;;;;-140.72;96.31;51427.16;6300184;22;19930;-77
2022/06/16 12:45:13;;;;;;;;;;;;;;;-140.72;100.00;51408.88;6300094;22;19923;-76
2022/06/16 12:47:41;;;;;;;;;;;;;;;-140.72;100.00;51506.25;6299443;22;19904;-80
2022/06/16 12:50:26;;;;;;;;;;;;;;;-140.72;100.00;51498.16;6272056;22;19935;-75
2022/06/16 12:52:55;;;;;;;;;;;;;;;-140.72;94.99;51437.28;6299043;22;19945;-74
2022/06/16 12:55:23;;;;;;;;;;;;;;;-140.72;100.00;51404.84;6272680;22;19936;-74
2022/06/16 12:57:59;;;;;;;;;;;;;;;-140.72;98.49;51435.25;6297835;22;19915;-75
2022/06/16 13:00:28;;;;;;;;;;;;;;;-140.72;98.63;51419.03;6298069;22;19914;-75
2022/06/16 13:03:08;;;;;;;;;;;;;;;-140.72;100.00;51423.09;6295585;22;19931;-71
2022/06/16 13:05:34;;;;;;;;;;;;;;;-140.72;100.00;51419.03;6293171;22;19989;-72
2022/06/16 13:08:00;;;;;;;;;;;;;;;-140.72;100.00;51475.84;6292819;22;19915;-73
2022/06/16 13:10:26;;;;;;;;;;;;;;;-140.72;100.00;51423.09;6294051;22;19911;-72
2022/06/16 13:12:58;;;;;;;;;;;;;;;-140.72;100.00;51475.84;6292412;22;19918;-72
2022/06/16 13:15:24;;;;;;;;;;;;;;;-140.72;100.00;51498.16;6293606;22;19921;-72
2022/06/16 13:17:52;;;;;;;;;;;;;;;-140.72;100.00;51469.75;6294419;22;19912;-73
2022/06/16 13:20:18;;;;;;;;;;;;;;;-140.72;100.00;51457.56;6295104;22;19926;-72
2022/06/16 13:23:11;;;;;;;;;;;;;;;-140.72;100.00;51449.47;6293892;22;20439;-72
2022/06/16 13:25:40;;;;;;;;;;;;;;;-140.72;100.00;51469.75;6288422;22;19911;-73
2022/06/16 13:28:09;;;;;;;;;;;;;;;-140.72;100.00;51469.75;6294815;22;19938;-71
2022/06/16 13:30:37;;;;;;;;;;;;;;;-140.72;100.00;51473.81;6294995;22;20317;-73
2022/06/16 13:33:05;;;;;;;;;;;;;;;-140.72;100.00;51479.91;6295239;22;19922;-72
2022/06/16 13:35:45;;;;;;;;;;;;;;;-140.72;100.00;51488.00;6267596;22;19941;-73
2022/06/16 13:38:10;;;;;;;;;;;;;;;-140.72;100.00;51581.31;6293607;22;19911;-73
2022/06/16 13:40:35;;;;;;;;;;;;;;;-140.72;100.00;51498.16;6267338;22;19922;-72
2022/06/16 13:43:03;;;;;;;;;;;;;;;-140.72;100.00;51548.88;6294458;22;20015;-73
2022/06/16 13:45:29;;;;;;;;;;;;;;;-140.72;100.00;51546.84;6266811;22;19923;-73
2022/06/16 13:48:12;;;;;;;;;;;;;;;-140.72;100.00;51550.91;6296161;22;19912;-73
2022/06/16 13:50:43;;;;;;;;;;;;;;;-140.72;100.00;51510.31;6296183;22;19915;-71
2022/06/16 13:53:09;;;;;;;;;;;;;;;-140.72;100.00;51550.91;6296799;22;19917;-73
2022/06/16 13:55:55;;;;;;;;;;;;;;;-140.72;100.00;51532.63;6296330;22;19939;-73
2022/06/16 13:58:28;;;;;;;;;;;;;;;-140.72;100.00;51514.38;6294703;22;19996;-71
2022/06/16 14:01:05;;;;;;;;;;;;;;;-140.72;100.00;51625.97;6294412;22;19959;-72
2022/06/16 14:03:31;;;;;;;;;;;;;;;-140.72;100.00;51617.84;6294652;22;19922;-71
2022/06/16 14:06:02;;;;;;;;;;;;;;;-140.72;100.00;51605.66;6297063;22;19911;-73
2022/06/16 14:08:28;;;;;;;;;;;;;;;-140.72;100.00;51542.78;6296731;22;19930;-73
2022/06/16 14:10:55;;;;;;;;;;;;;;;-140.72;100.00;51538.72;6296492;22;19911;-73
2022/06/16 14:13:25;;;;;;;;;;;;;;;-140.72;100.00;51518.44;6296614;22;19911;-72
2022/06/16 14:16:10;;;;;;;;;;;;;;;-140.72;100.00;51565.09;6297465;22;19934;-73
2022/06/16 14:18:55;;;;;;;;;;;;;;;-140.72;100.00;51656.38;6279995;22;19907;-73
2022/06/16 14:21:25;;;;;;;;;;;;;;;-140.72;100.00;51678.72;6297640;22;19951;-73
2022/06/16 14:24:00;;;;;;;;;;;;;;;-140.72;100.00;51701.03;6267639;22;19919;-72
2022/06/16 14:26:27;;;;;;;;;;;;;;;-140.72;100.00;51737.53;6295218;22;19900;-72
2022/06/16 14:28:56;;;;;;;;;;;;;;;-140.72;100.00;51767.97;6295905;22;19911;-72
2022/06/16 14:31:27;;;;;;;;;;;;;;;-140.72;100.00;51810.56;6295443;22;19912;-72
2022/06/16 14:34:06;;;;;;;;;;;;;;;-140.72;100.00;51826.81;6295847;22;19911;-72
2022/06/16 14:36:49;;;;;;;;;;;;;;;-140.72;100.00;51834.91;6300123;22;19903;-71